sensor_id;sensor_type;location;lat;lon;timestamp;P1;durP1;ratioP1;P2;durP2;ratioP2
80119;SDS011;69425;55.040;82.918;2023-05-07T00:04:16;56.85;;;32.05;;
80119;SDS011;69425;55.040;82.918;2023-05-07T00:09:17;69.07;;;35.13;;
80119;SDS011;69425;55.040;82.918;2023-05-07T00:14:19;61.70;;;34.60;;
80119;SDS011;69425;55.040;82.918;2023-05-07T00:19:21;59.30;;;33.38;;
80119;SDS011;69425;55.040;82.918;2023-05-07T00:24:22;63.50;;;32.30;;
80119;SDS011;69425;55.040;82.918;2023-05-07T00:29:23;57.55;;;32.20;;
80119;SDS011;69425;55.040;82.918;2023-05-07T00:34:26;64.50;;;34.38;;
80119;SDS011;69425;55.040;82.918;2023-05-07T00:39:27;70.05;;;35.50;;
80119;SDS011;69425;55.040;82.918;2023-05-07T00:44:28;72.45;;;34.28;;
80119;SDS011;69425;55.040;82.918;2023-05-07T00:49:34;65.72;;;32.35;;
80119;SDS011;69425;55.040;82.918;2023-05-07T00:54:38;53.55;;;29.48;;
80119;SDS011;69425;55.040;82.918;2023-05-07T00:59:39;55.97;;;28.58;;
80119;SDS011;69425;55.040;82.918;2023-05-07T01:04:42;54.80;;;30.50;;
80119;SDS011;69425;55.040;82.918;2023-05-07T01:09:43;59.05;;;28.70;;
80119;SDS011;69425;55.040;82.918;2023-05-07T01:14:44;49.70;;;27.70;;
80119;SDS011;69425;55.040;82.918;2023-05-07T01:19:47;48.13;;;27.77;;
80119;SDS011;69425;55.040;82.918;2023-05-07T01:24:50;52.95;;;29.17;;
80119;SDS011;69425;55.040;82.918;2023-05-07T01:29:51;47.90;;;28.20;;
80119;SDS011;69425;55.040;82.918;2023-05-07T01:34:52;49.78;;;27.30;;
80119;SDS011;69425;55.040;82.918;2023-05-07T01:39:55;46.90;;;26.33;;
80119;SDS011;69425;55.040;82.918;2023-05-07T01:44:56;48.63;;;27.75;;
80119;SDS011;69425;55.040;82.918;2023-05-07T01:49:58;53.10;;;28.52;;
80119;SDS011;69425;55.040;82.918;2023-05-07T01:55:00;47.33;;;28.10;;
80119;SDS011;69425;55.040;82.918;2023-05-07T02:00:03;49.42;;;27.23;;
80119;SDS011;69425;55.040;82.918;2023-05-07T02:05:05;51.70;;;29.15;;
80119;SDS011;69425;55.040;82.918;2023-05-07T02:10:09;52.17;;;28.88;;
80119;SDS011;69425;55.040;82.918;2023-05-07T02:15:10;50.47;;;26.98;;
80119;SDS011;69425;55.040;82.918;2023-05-07T02:20:12;46.78;;;28.52;;
80119;SDS011;69425;55.040;82.918;2023-05-07T02:25:34;49.90;;;28.38;;
80119;SDS011;69425;55.040;82.918;2023-05-07T02:30:36;52.65;;;30.48;;
80119;SDS011;69425;55.040;82.918;2023-05-07T02:35:37;51.55;;;30.63;;
80119;SDS011;69425;55.040;82.918;2023-05-07T02:40:40;48.03;;;28.17;;
80119;SDS011;69425;55.040;82.918;2023-05-07T02:45:41;49.03;;;30.42;;
80119;SDS011;69425;55.040;82.918;2023-05-07T02:50:42;54.47;;;28.45;;
80119;SDS011;69425;55.040;82.918;2023-05-07T02:55:45;113.82;;;32.92;;
80119;SDS011;69425;55.040;82.918;2023-05-07T03:00:46;99.65;;;32.30;;
80119;SDS011;69425;55.040;82.918;2023-05-07T03:05:47;59.80;;;29.73;;
80119;SDS011;69425;55.040;82.918;2023-05-07T03:10:50;59.60;;;30.98;;
80119;SDS011;69425;55.040;82.918;2023-05-07T03:15:52;58.97;;;31.52;;
80119;SDS011;69425;55.040;82.918;2023-05-07T03:20:53;58.33;;;31.50;;
80119;SDS011;69425;55.040;82.918;2023-05-07T03:25:55;60.35;;;30.90;;
80119;SDS011;69425;55.040;82.918;2023-05-07T03:30:56;68.10;;;31.48;;
80119;SDS011;69425;55.040;82.918;2023-05-07T03:35:58;54.70;;;31.67;;
80119;SDS011;69425;55.040;82.918;2023-05-07T03:41:00;63.58;;;30.17;;
80119;SDS011;69425;55.040;82.918;2023-05-07T03:46:01;61.20;;;32.50;;
80119;SDS011;69425;55.040;82.918;2023-05-07T03:51:02;59.63;;;32.70;;
80119;SDS011;69425;55.040;82.918;2023-05-07T03:56:05;56.40;;;31.92;;
80119;SDS011;69425;55.040;82.918;2023-05-07T04:01:07;54.90;;;31.40;;
80119;SDS011;69425;55.040;82.918;2023-05-07T04:06:08;56.15;;;32.30;;
80119;SDS011;69425;55.040;82.918;2023-05-07T04:11:10;63.60;;;32.42;;
80119;SDS011;69425;55.040;82.918;2023-05-07T04:16:12;64.05;;;31.08;;
80119;SDS011;69425;55.040;82.918;2023-05-07T04:21:16;67.35;;;32.42;;
80119;SDS011;69425;55.040;82.918;2023-05-07T04:26:19;55.88;;;31.10;;
80119;SDS011;69425;55.040;82.918;2023-05-07T04:31:20;57.30;;;32.10;;
80119;SDS011;69425;55.040;82.918;2023-05-07T04:36:21;61.30;;;31.25;;
80119;SDS011;69425;55.040;82.918;2023-05-07T04:41:24;58.17;;;32.80;;
80119;SDS011;69425;55.040;82.918;2023-05-07T04:46:25;63.67;;;33.72;;
80119;SDS011;69425;55.040;82.918;2023-05-07T04:51:26;66.00;;;34.10;;
80119;SDS011;69425;55.040;82.918;2023-05-07T04:56:29;59.20;;;31.88;;
80119;SDS011;69425;55.040;82.918;2023-05-07T05:01:30;59.53;;;32.50;;
80119;SDS011;69425;55.040;82.918;2023-05-07T05:06:31;63.35;;;31.83;;
80119;SDS011;69425;55.040;82.918;2023-05-07T05:11:34;54.58;;;32.35;;
80119;SDS011;69425;55.040;82.918;2023-05-07T05:16:35;54.03;;;31.35;;
80119;SDS011;69425;55.040;82.918;2023-05-07T05:21:36;60.22;;;31.98;;
80119;SDS011;69425;55.040;82.918;2023-05-07T05:26:39;50.92;;;28.45;;
80119;SDS011;69425;55.040;82.918;2023-05-07T05:31:40;59.05;;;29.83;;
80119;SDS011;69425;55.040;82.918;2023-05-07T05:36:41;57.80;;;30.13;;
80119;SDS011;69425;55.040;82.918;2023-05-07T05:41:44;64.15;;;30.08;;
80119;SDS011;69425;55.040;82.918;2023-05-07T05:46:45;52.35;;;29.55;;
80119;SDS011;69425;55.040;82.918;2023-05-07T05:51:46;56.05;;;29.83;;
80119;SDS011;69425;55.040;82.918;2023-05-07T05:56:49;53.70;;;28.90;;
80119;SDS011;69425;55.040;82.918;2023-05-07T06:01:50;52.78;;;28.88;;
80119;SDS011;69425;55.040;82.918;2023-05-07T06:06:51;50.05;;;28.63;;
80119;SDS011;69425;55.040;82.918;2023-05-07T06:11:54;49.40;;;29.73;;
80119;SDS011;69425;55.040;82.918;2023-05-07T06:16:55;50.00;;;31.05;;
80119;SDS011;69425;55.040;82.918;2023-05-07T06:21:56;61.05;;;32.00;;
80119;SDS011;69425;55.040;82.918;2023-05-07T06:26:59;57.67;;;30.80;;
80119;SDS011;69425;55.040;82.918;2023-05-07T06:32:05;53.15;;;32.45;;
80119;SDS011;69425;55.040;82.918;2023-05-07T06:37:07;46.92;;;28.58;;
80119;SDS011;69425;55.040;82.918;2023-05-07T06:42:10;50.45;;;30.60;;
80119;SDS011;69425;55.040;82.918;2023-05-07T06:47:11;47.90;;;31.00;;
80119;SDS011;69425;55.040;82.918;2023-05-07T06:52:12;57.20;;;34.47;;
80119;SDS011;69425;55.040;82.918;2023-05-07T06:57:15;49.17;;;33.08;;
80119;SDS011;69425;55.040;82.918;2023-05-07T07:02:17;50.80;;;31.73;;
80119;SDS011;69425;55.040;82.918;2023-05-07T07:07:18;49.33;;;32.50;;
80119;SDS011;69425;55.040;82.918;2023-05-07T07:12:21;64.45;;;34.75;;
80119;SDS011;69425;55.040;82.918;2023-05-07T07:17:22;62.92;;;36.58;;
80119;SDS011;69425;55.040;82.918;2023-05-07T07:22:23;56.22;;;34.97;;
80119;SDS011;69425;55.040;82.918;2023-05-07T07:27:26;64.10;;;35.15;;
80119;SDS011;69425;55.040;82.918;2023-05-07T07:32:27;58.97;;;35.47;;
80119;SDS011;69425;55.040;82.918;2023-05-07T07:37:28;58.42;;;35.45;;
80119;SDS011;69425;55.040;82.918;2023-05-07T07:42:31;53.65;;;34.33;;
80119;SDS011;69425;55.040;82.918;2023-05-07T07:47:32;59.90;;;34.60;;
80119;SDS011;69425;55.040;82.918;2023-05-07T07:52:33;60.75;;;33.72;;
80119;SDS011;69425;55.040;82.918;2023-05-07T07:57:36;58.45;;;34.38;;
80119;SDS011;69425;55.040;82.918;2023-05-07T08:02:37;55.65;;;36.00;;
80119;SDS011;69425;55.040;82.918;2023-05-07T08:07:38;59.33;;;33.92;;
80119;SDS011;69425;55.040;82.918;2023-05-07T08:12:42;53.13;;;35.05;;
80119;SDS011;69425;55.040;82.918;2023-05-07T08:17:43;55.45;;;33.72;;
80119;SDS011;69425;55.040;82.918;2023-05-07T08:22:44;49.45;;;32.63;;
80119;SDS011;69425;55.040;82.918;2023-05-07T08:27:47;47.75;;;31.70;;
80119;SDS011;69425;55.040;82.918;2023-05-07T08:32:48;47.38;;;30.38;;
80119;SDS011;69425;55.040;82.918;2023-05-07T08:37:49;47.28;;;31.05;;
80119;SDS011;69425;55.040;82.918;2023-05-07T08:42:52;41.75;;;30.10;;
80119;SDS011;69425;55.040;82.918;2023-05-07T08:47:54;40.88;;;28.42;;
80119;SDS011;69425;55.040;82.918;2023-05-07T08:52:59;44.90;;;30.83;;
80119;SDS011;69425;55.040;82.918;2023-05-07T08:58:02;55.30;;;33.53;;
80119;SDS011;69425;55.040;82.918;2023-05-07T09:03:03;50.30;;;33.65;;
80119;SDS011;69425;55.040;82.918;2023-05-07T09:08:05;52.90;;;33.22;;
80119;SDS011;69425;55.040;82.918;2023-05-07T09:13:08;58.58;;;34.42;;
80119;SDS011;69425;55.040;82.918;2023-05-07T09:18:09;54.95;;;34.53;;
80119;SDS011;69425;55.040;82.918;2023-05-07T09:23:10;54.95;;;33.03;;
80119;SDS011;69425;55.040;82.918;2023-05-07T09:28:13;51.45;;;31.90;;
80119;SDS011;69425;55.040;82.918;2023-05-07T09:33:14;48.00;;;31.92;;
80119;SDS011;69425;55.040;82.918;2023-05-07T09:38:16;53.28;;;33.30;;
80119;SDS011;69425;55.040;82.918;2023-05-07T09:43:20;56.20;;;33.47;;
80119;SDS011;69425;55.040;82.918;2023-05-07T09:48:21;53.17;;;32.88;;
80119;SDS011;69425;55.040;82.918;2023-05-07T09:53:23;44.67;;;29.58;;
80119;SDS011;69425;55.040;82.918;2023-05-07T09:58:26;44.92;;;29.90;;
80119;SDS011;69425;55.040;82.918;2023-05-07T10:03:28;48.13;;;31.10;;
80119;SDS011;69425;55.040;82.918;2023-05-07T10:08:30;42.38;;;29.50;;
80119;SDS011;69425;55.040;82.918;2023-05-07T10:13:33;43.88;;;30.10;;
80119;SDS011;69425;55.040;82.918;2023-05-07T10:18:34;44.88;;;28.85;;
80119;SDS011;69425;55.040;82.918;2023-05-07T10:23:35;46.63;;;28.48;;
80119;SDS011;69425;55.040;82.918;2023-05-07T10:28:39;42.83;;;28.05;;
80119;SDS011;69425;55.040;82.918;2023-05-07T10:33:41;44.35;;;28.33;;
80119;SDS011;69425;55.040;82.918;2023-05-07T10:38:43;42.58;;;28.20;;
80119;SDS011;69425;55.040;82.918;2023-05-07T10:43:46;46.05;;;29.92;;
80119;SDS011;69425;55.040;82.918;2023-05-07T10:49:06;47.08;;;27.98;;
80119;SDS011;69425;55.040;82.918;2023-05-07T10:59:31;49.03;;;30.23;;
80119;SDS011;69425;55.040;82.918;2023-05-07T11:04:34;48.22;;;30.25;;
80119;SDS011;69425;55.040;82.918;2023-05-07T11:14:59;45.30;;;30.83;;
80119;SDS011;69425;55.040;82.918;2023-05-07T11:20:00;47.97;;;30.65;;
80119;SDS011;69425;55.040;82.918;2023-05-07T11:25:04;46.40;;;31.38;;
80119;SDS011;69425;55.040;82.918;2023-05-07T11:30:08;46.75;;;30.85;;
80119;SDS011;69425;55.040;82.918;2023-05-07T11:35:10;56.13;;;31.80;;
80119;SDS011;69425;55.040;82.918;2023-05-07T11:40:12;51.10;;;30.75;;
80119;SDS011;69425;55.040;82.918;2023-05-07T11:45:19;52.45;;;31.52;;
80119;SDS011;69425;55.040;82.918;2023-05-07T11:50:24;50.28;;;31.40;;
80119;SDS011;69425;55.040;82.918;2023-05-07T11:55:25;55.65;;;31.80;;
80119;SDS011;69425;55.040;82.918;2023-05-07T12:00:28;54.55;;;31.85;;
80119;SDS011;69425;55.040;82.918;2023-05-07T12:05:29;45.22;;;29.38;;
80119;SDS011;69425;55.040;82.918;2023-05-07T12:10:30;49.55;;;32.30;;
80119;SDS011;69425;55.040;82.918;2023-05-07T12:15:33;44.28;;;31.00;;
80119;SDS011;69425;55.040;82.918;2023-05-07T12:20:36;47.60;;;30.52;;
80119;SDS011;69425;55.040;82.918;2023-05-07T12:25:37;45.20;;;31.05;;
80119;SDS011;69425;55.040;82.918;2023-05-07T12:30:41;40.95;;;30.33;;
80119;SDS011;69425;55.040;82.918;2023-05-07T12:35:43;48.40;;;28.70;;
80119;SDS011;69425;55.040;82.918;2023-05-07T12:40:44;50.92;;;30.30;;
80119;SDS011;69425;55.040;82.918;2023-05-07T12:45:49;45.97;;;29.58;;
80119;SDS011;69425;55.040;82.918;2023-05-07T12:50:50;49.88;;;31.45;;
80119;SDS011;69425;55.040;82.918;2023-05-07T12:55:53;46.45;;;30.00;;
80119;SDS011;69425;55.040;82.918;2023-05-07T13:00:56;45.70;;;28.55;;
80119;SDS011;69425;55.040;82.918;2023-05-07T13:06:01;44.30;;;28.83;;
80119;SDS011;69425;55.040;82.918;2023-05-07T13:11:03;43.92;;;29.38;;
80119;SDS011;69425;55.040;82.918;2023-05-07T13:16:07;42.90;;;29.48;;
80119;SDS011;69425;55.040;82.918;2023-05-07T13:21:09;56.63;;;35.20;;
80119;SDS011;69425;55.040;82.918;2023-05-07T13:26:10;45.58;;;28.98;;
80119;SDS011;69425;55.040;82.918;2023-05-07T13:31:13;46.60;;;30.60;;
80119;SDS011;69425;55.040;82.918;2023-05-07T13:36:14;51.10;;;32.17;;
80119;SDS011;69425;55.040;82.918;2023-05-07T13:41:15;53.53;;;33.05;;
80119;SDS011;69425;55.040;82.918;2023-05-07T13:46:18;62.22;;;34.53;;
80119;SDS011;69425;55.040;82.918;2023-05-07T13:51:19;50.60;;;31.50;;
80119;SDS011;69425;55.040;82.918;2023-05-07T13:56:20;55.90;;;33.10;;
80119;SDS011;69425;55.040;82.918;2023-05-07T14:01:23;56.55;;;33.65;;
80119;SDS011;69425;55.040;82.918;2023-05-07T14:06:24;68.45;;;34.35;;
80119;SDS011;69425;55.040;82.918;2023-05-07T14:11:25;75.03;;;36.28;;
80119;SDS011;69425;55.040;82.918;2023-05-07T14:16:27;61.20;;;33.78;;
80119;SDS011;69425;55.040;82.918;2023-05-07T14:21:29;70.32;;;33.95;;
80119;SDS011;69425;55.040;82.918;2023-05-07T14:26:30;65.57;;;32.75;;
80119;SDS011;69425;55.040;82.918;2023-05-07T14:31:32;57.13;;;31.15;;
80119;SDS011;69425;55.040;82.918;2023-05-07T14:36:34;54.08;;;33.65;;
80119;SDS011;69425;55.040;82.918;2023-05-07T14:41:35;54.72;;;33.42;;
80119;SDS011;69425;55.040;82.918;2023-05-07T14:46:37;55.65;;;33.80;;
80119;SDS011;69425;55.040;82.918;2023-05-07T14:51:38;53.35;;;31.90;;
80119;SDS011;69425;55.040;82.918;2023-05-07T14:56:40;60.35;;;32.78;;
80119;SDS011;69425;55.040;82.918;2023-05-07T15:01:43;55.95;;;32.72;;
80119;SDS011;69425;55.040;82.918;2023-05-07T15:06:44;55.17;;;33.50;;
80119;SDS011;69425;55.040;82.918;2023-05-07T15:11:45;52.97;;;33.47;;
80119;SDS011;69425;55.040;82.918;2023-05-07T15:16:49;50.75;;;33.13;;
80119;SDS011;69425;55.040;82.918;2023-05-07T15:21:50;68.75;;;34.33;;
80119;SDS011;69425;55.040;82.918;2023-05-07T15:26:51;71.85;;;36.10;;
80119;SDS011;69425;55.040;82.918;2023-05-07T15:31:54;62.72;;;34.00;;
80119;SDS011;69425;55.040;82.918;2023-05-07T15:36:55;56.22;;;34.78;;
80119;SDS011;69425;55.040;82.918;2023-05-07T15:41:56;60.70;;;33.17;;
80119;SDS011;69425;55.040;82.918;2023-05-07T15:46:59;64.10;;;34.58;;
80119;SDS011;69425;55.040;82.918;2023-05-07T15:52:00;62.75;;;32.72;;
80119;SDS011;69425;55.040;82.918;2023-05-07T15:57:02;69.93;;;34.53;;
80119;SDS011;69425;55.040;82.918;2023-05-07T16:02:04;69.40;;;35.67;;
80119;SDS011;69425;55.040;82.918;2023-05-07T16:07:06;67.13;;;34.60;;
80119;SDS011;69425;55.040;82.918;2023-05-07T16:12:07;69.32;;;35.17;;
80119;SDS011;69425;55.040;82.918;2023-05-07T16:17:10;62.47;;;34.30;;
80119;SDS011;69425;55.040;82.918;2023-05-07T16:22:11;59.70;;;32.80;;
80119;SDS011;69425;55.040;82.918;2023-05-07T16:27:12;66.75;;;34.33;;
80119;SDS011;69425;55.040;82.918;2023-05-07T16:32:15;70.95;;;38.15;;
80119;SDS011;69425;55.040;82.918;2023-05-07T16:37:16;83.68;;;38.60;;
80119;SDS011;69425;55.040;82.918;2023-05-07T16:42:17;89.07;;;40.28;;
80119;SDS011;69425;55.040;82.918;2023-05-07T16:47:20;94.72;;;45.47;;
80119;SDS011;69425;55.040;82.918;2023-05-07T16:52:21;112.32;;;51.42;;
80119;SDS011;69425;55.040;82.918;2023-05-07T16:57:22;115.25;;;53.50;;
80119;SDS011;69425;55.040;82.918;2023-05-07T17:02:25;102.43;;;50.90;;
80119;SDS011;69425;55.040;82.918;2023-05-07T17:07:26;104.47;;;50.08;;
80119;SDS011;69425;55.040;82.918;2023-05-07T17:12:27;85.50;;;48.88;;
80119;SDS011;69425;55.040;82.918;2023-05-07T17:17:30;92.20;;;47.58;;
80119;SDS011;69425;55.040;82.918;2023-05-07T17:22:31;90.97;;;48.97;;
80119;SDS011;69425;55.040;82.918;2023-05-07T17:27:32;80.40;;;45.60;;
80119;SDS011;69425;55.040;82.918;2023-05-07T17:32:35;81.50;;;45.70;;
80119;SDS011;69425;55.040;82.918;2023-05-07T17:37:36;87.32;;;47.15;;
80119;SDS011;69425;55.040;82.918;2023-05-07T17:42:37;85.82;;;47.05;;
80119;SDS011;69425;55.040;82.918;2023-05-07T17:47:40;85.03;;;45.83;;
80119;SDS011;69425;55.040;82.918;2023-05-07T17:52:41;86.93;;;45.25;;
80119;SDS011;69425;55.040;82.918;2023-05-07T17:57:42;86.28;;;46.00;;
80119;SDS011;69425;55.040;82.918;2023-05-07T18:02:45;81.38;;;43.50;;
80119;SDS011;69425;55.040;82.918;2023-05-07T18:07:46;80.60;;;43.55;;
80119;SDS011;69425;55.040;82.918;2023-05-07T18:12:47;82.45;;;44.13;;
80119;SDS011;69425;55.040;82.918;2023-05-07T18:17:50;84.15;;;45.08;;
80119;SDS011;69425;55.040;82.918;2023-05-07T18:22:51;80.68;;;45.42;;
80119;SDS011;69425;55.040;82.918;2023-05-07T18:27:52;88.38;;;45.67;;
80119;SDS011;69425;55.040;82.918;2023-05-07T18:32:55;89.88;;;45.47;;
80119;SDS011;69425;55.040;82.918;2023-05-07T18:37:56;88.78;;;45.28;;
80119;SDS011;69425;55.040;82.918;2023-05-07T18:42:57;91.40;;;46.15;;
80119;SDS011;69425;55.040;82.918;2023-05-07T18:48:00;85.85;;;43.00;;
80119;SDS011;69425;55.040;82.918;2023-05-07T18:53:01;75.90;;;42.22;;
80119;SDS011;69425;55.040;82.918;2023-05-07T18:58:02;88.15;;;43.30;;
80119;SDS011;69425;55.040;82.918;2023-05-07T19:03:05;75.68;;;41.60;;
80119;SDS011;69425;55.040;82.918;2023-05-07T19:08:06;79.68;;;43.85;;
80119;SDS011;69425;55.040;82.918;2023-05-07T19:13:07;75.38;;;41.78;;
80119;SDS011;69425;55.040;82.918;2023-05-07T19:18:10;87.40;;;43.95;;
80119;SDS011;69425;55.040;82.918;2023-05-07T19:23:11;88.07;;;43.90;;
80119;SDS011;69425;55.040;82.918;2023-05-07T19:28:12;90.60;;;43.83;;
80119;SDS011;69425;55.040;82.918;2023-05-07T19:33:15;86.05;;;44.97;;
80119;SDS011;69425;55.040;82.918;2023-05-07T19:38:16;93.80;;;46.55;;
80119;SDS011;69425;55.040;82.918;2023-05-07T19:43:17;103.93;;;50.00;;
80119;SDS011;69425;55.040;82.918;2023-05-07T19:48:20;94.18;;;47.08;;
80119;SDS011;69425;55.040;82.918;2023-05-07T19:53:21;87.93;;;45.97;;
80119;SDS011;69425;55.040;82.918;2023-05-07T19:58:22;83.13;;;47.25;;
80119;SDS011;69425;55.040;82.918;2023-05-07T20:03:25;84.82;;;46.00;;
80119;SDS011;69425;55.040;82.918;2023-05-07T20:08:26;84.57;;;42.85;;
80119;SDS011;69425;55.040;82.918;2023-05-07T20:13:27;81.55;;;44.55;;
80119;SDS011;69425;55.040;82.918;2023-05-07T20:18:30;80.18;;;45.38;;
80119;SDS011;69425;55.040;82.918;2023-05-07T20:23:31;72.60;;;40.55;;
80119;SDS011;69425;55.040;82.918;2023-05-07T20:28:32;74.25;;;43.42;;
80119;SDS011;69425;55.040;82.918;2023-05-07T20:33:35;67.75;;;40.40;;
80119;SDS011;69425;55.040;82.918;2023-05-07T20:38:36;66.38;;;37.95;;
80119;SDS011;69425;55.040;82.918;2023-05-07T20:43:39;63.80;;;37.63;;
80119;SDS011;69425;55.040;82.918;2023-05-07T20:48:41;71.65;;;36.67;;
80119;SDS011;69425;55.040;82.918;2023-05-07T20:53:42;68.38;;;36.85;;
80119;SDS011;69425;55.040;82.918;2023-05-07T20:58:44;60.63;;;35.55;;
80119;SDS011;69425;55.040;82.918;2023-05-07T21:03:46;70.47;;;35.70;;
80119;SDS011;69425;55.040;82.918;2023-05-07T21:08:47;67.78;;;35.85;;
80119;SDS011;69425;55.040;82.918;2023-05-07T21:13:48;64.43;;;36.95;;
80119;SDS011;69425;55.040;82.918;2023-05-07T21:18:51;70.60;;;37.38;;
80119;SDS011;69425;55.040;82.918;2023-05-07T21:23:52;60.85;;;34.30;;
80119;SDS011;69425;55.040;82.918;2023-05-07T21:28:53;67.07;;;34.65;;
80119;SDS011;69425;55.040;82.918;2023-05-07T21:33:56;65.45;;;36.53;;
80119;SDS011;69425;55.040;82.918;2023-05-07T21:38:57;60.42;;;34.20;;
80119;SDS011;69425;55.040;82.918;2023-05-07T21:43:58;63.67;;;34.75;;
80119;SDS011;69425;55.040;82.918;2023-05-07T21:49:01;62.90;;;34.70;;
80119;SDS011;69425;55.040;82.918;2023-05-07T21:54:02;59.88;;;34.63;;
80119;SDS011;69425;55.040;82.918;2023-05-07T21:59:03;54.35;;;32.25;;
80119;SDS011;69425;55.040;82.918;2023-05-07T22:04:06;58.28;;;34.67;;
80119;SDS011;69425;55.040;82.918;2023-05-07T22:09:07;56.83;;;32.47;;
80119;SDS011;69425;55.040;82.918;2023-05-07T22:14:08;55.45;;;31.13;;
80119;SDS011;69425;55.040;82.918;2023-05-07T22:19:11;62.28;;;32.78;;
80119;SDS011;69425;55.040;82.918;2023-05-07T22:24:12;61.10;;;32.10;;
80119;SDS011;69425;55.040;82.918;2023-05-07T22:29:13;53.65;;;29.88;;
80119;SDS011;69425;55.040;82.918;2023-05-07T22:34:16;52.78;;;27.20;;
80119;SDS011;69425;55.040;82.918;2023-05-07T22:39:17;50.58;;;26.85;;
80119;SDS011;69425;55.040;82.918;2023-05-07T22:44:18;53.95;;;29.08;;
80119;SDS011;69425;55.040;82.918;2023-05-07T22:49:21;50.95;;;27.38;;
80119;SDS011;69425;55.040;82.918;2023-05-07T22:54:22;44.15;;;25.40;;
80119;SDS011;69425;55.040;82.918;2023-05-07T22:59:23;41.80;;;25.08;;
80119;SDS011;69425;55.040;82.918;2023-05-07T23:04:26;50.55;;;27.95;;
80119;SDS011;69425;55.040;82.918;2023-05-07T23:09:27;49.38;;;26.65;;
80119;SDS011;69425;55.040;82.918;2023-05-07T23:14:28;47.40;;;26.77;;
80119;SDS011;69425;55.040;82.918;2023-05-07T23:19:30;45.20;;;26.08;;
80119;SDS011;69425;55.040;82.918;2023-05-07T23:24:32;47.30;;;26.63;;
80119;SDS011;69425;55.040;82.918;2023-05-07T23:29:33;42.85;;;24.75;;
80119;SDS011;69425;55.040;82.918;2023-05-07T23:34:35;45.30;;;25.13;;
80119;SDS011;69425;55.040;82.918;2023-05-07T23:39:37;45.75;;;23.30;;
80119;SDS011;69425;55.040;82.918;2023-05-07T23:44:38;41.90;;;24.20;;
80119;SDS011;69425;55.040;82.918;2023-05-07T23:49:40;40.15;;;21.40;;
80119;SDS011;69425;55.040;82.918;2023-05-07T23:54:41;43.47;;;23.38;;
80119;SDS011;69425;55.040;82.918;2023-05-07T23:59:43;40.25;;;23.70;;
